Time;durP1;ratioP1;P1;durP2;ratioP2;P2;SDS_P1;SDS_P2;PMS_P1;PMS_P2;Temp;Humidity;BMP_temperature;BMP_pressure;BME280_temperature;BME280_humidity;BME280_pressure;Samples;Min_cycle;Max_cycle;Signal;HPM_P1;HPM_P2
2021/12/05 00:22:20;;;;;;;4.00;1.37;;;;;;;4.96;100.00;99080.72;4999200;28;20206;-53
2021/12/05 00:24:49;;;;;;;5.60;1.70;;;;;;;5.00;100.00;99082.41;4996509;28;20540;-53
2021/12/05 00:27:20;;;;;;;3.27;1.43;;;;;;;5.02;100.00;99078.13;4999612;28;20354;-53
2021/12/05 00:30:15;;;;;;;2.63;1.83;;;;;;;5.06;100.00;99081.53;4999635;28;20219;-56
2021/12/05 00:48:38;;;;;;;8.63;5.07;;;;;;;5.08;100.00;99072.13;4995407;28;20468;-54
2021/12/05 01:07:42;;;;;;;3.97;1.43;;;;;;;5.11;100.00;99077.22;4998790;28;20215;-53
2021/12/05 01:15:18;;;;;;;2.40;1.40;;;;;;;5.16;100.00;99085.72;5001571;28;20196;-54
2021/12/05 01:18:04;;;;;;;2.77;1.30;;;;;;;5.17;100.00;99079.75;5002117;28;20747;-55
2021/12/05 01:20:34;;;;;;;2.63;1.17;;;;;;;5.16;100.00;99078.91;4995597;28;20910;-54
2021/12/05 01:23:05;;;;;;;2.63;1.60;;;;;;;5.16;100.00;99076.34;5003690;28;20654;-55
2021/12/05 01:33:04;;;;;;;4.47;1.87;;;;;;;5.16;100.00;99080.59;4996984;28;20802;-54
2021/12/05 01:41:03;;;;;;;3.97;1.37;;;;;;;5.13;100.00;99075.50;5000533;28;20588;-54
2021/12/05 01:57:27;;;;;;;2.97;1.20;;;;;;;5.00;100.00;99067.88;5000590;28;20364;-54
2021/12/05 02:00:15;;;;;;;3.50;1.30;;;;;;;4.98;100.00;99061.06;4993602;28;21745;-54
2021/12/05 02:16:27;;;;;;;2.30;1.30;;;;;;;4.91;100.00;99044.03;4998865;28;20237;-55
2021/12/05 02:43:09;;;;;;;3.03;1.33;;;;;;;4.86;100.00;99044.03;4988613;28;20410;-54
2021/12/05 02:45:40;;;;;;;3.03;1.17;;;;;;;4.83;100.00;99038.94;5002172;28;20672;-54
2021/12/05 02:48:07;;;;;;;2.53;1.17;;;;;;;4.76;100.00;99038.13;5004699;28;20303;-55
2021/12/05 02:50:34;;;;;;;4.33;1.13;;;;;;;4.71;100.00;99029.59;5003955;28;20216;-53
2021/12/05 02:53:10;;;;;;;3.07;1.30;;;;;;;4.68;100.00;99027.91;4997220;28;20317;-54
2021/12/05 02:55:39;;;;;;;2.70;1.20;;;;;;;4.66;100.00;99026.19;5005923;28;20628;-55
2021/12/05 02:58:43;;;;;;;4.40;1.30;;;;;;;4.64;100.00;99023.66;4999438;28;20299;-54
2021/12/05 03:01:24;;;;;;;2.20;1.43;;;;;;;4.60;100.00;99016.00;4999768;28;20223;-53
2021/12/05 03:03:52;;;;;;;2.53;1.30;;;;;;;4.54;100.00;99011.72;5001046;28;20283;-53
2021/12/05 03:06:23;;;;;;;4.70;1.37;;;;;;;4.49;100.00;99006.63;5002621;28;20204;-54
2021/12/05 03:09:15;;;;;;;4.97;1.30;;;;;;;4.43;100.00;99009.25;5004085;28;20199;-54
2021/12/05 03:11:42;;;;;;;1.87;1.20;;;;;;;4.39;100.00;99015.22;5011472;28;20226;-54
2021/12/05 03:14:08;;;;;;;2.67;1.50;;;;;;;4.37;100.00;99006.69;5007397;28;20231;-54
2021/12/05 03:16:36;;;;;;;3.07;1.50;;;;;;;4.34;100.00;99001.56;4999527;28;20267;-54
2021/12/05 03:19:04;;;;;;;2.23;1.53;;;;;;;4.28;100.00;99002.47;5001103;28;20603;-54
2021/12/05 03:21:30;;;;;;;4.50;1.70;;;;;;;4.18;100.00;98999.06;5003723;28;20195;-53
2021/12/05 03:23:57;;;;;;;3.10;1.57;;;;;;;4.11;100.00;98997.41;5000181;28;20198;-54
2021/12/05 03:26:26;;;;;;;4.20;1.67;;;;;;;4.01;100.00;98994.03;5001076;28;20304;-53
2021/12/05 03:28:54;;;;;;;4.27;2.00;;;;;;;3.89;100.00;99004.31;5002624;28;20661;-53
2021/12/05 03:31:21;;;;;;;4.83;1.50;;;;;;;3.76;100.00;98999.22;4993946;28;20187;-54
2021/12/05 03:33:47;;;;;;;3.17;2.00;;;;;;;3.69;100.00;99001.78;5012248;28;20202;-53
2021/12/05 03:36:13;;;;;;;6.30;1.57;;;;;;;3.60;100.00;99000.94;5006376;28;20213;-54
2021/12/05 03:38:41;;;;;;;3.07;1.50;;;;;;;3.54;100.00;99011.19;5011919;28;20196;-53
2021/12/05 03:41:08;;;;;;;4.43;1.50;;;;;;;3.48;100.00;98999.25;5004586;28;20188;-54
2021/12/05 03:43:34;;;;;;;3.57;1.80;;;;;;;3.46;100.00;99005.22;5006269;28;20217;-52
2021/12/05 03:46:00;;;;;;;3.03;1.57;;;;;;;3.47;100.00;99000.13;5007795;28;20244;-53
2021/12/05 03:48:29;;;;;;;5.57;1.97;;;;;;;3.47;100.00;99001.81;5008114;28;20526;-53
2021/12/05 03:50:56;;;;;;;2.57;1.40;;;;;;;3.45;100.00;99001.81;5003237;28;20218;-53
2021/12/05 03:53:21;;;;;;;3.67;1.50;;;;;;;3.41;100.00;98995.00;4999579;28;20302;-53
2021/12/05 03:55:51;;;;;;;3.77;1.60;;;;;;;3.37;100.00;99006.06;5006135;28;20196;-53
2021/12/05 03:58:18;;;;;;;4.70;1.30;;;;;;;3.29;100.00;99000.13;4996494;28;20262;-54
2021/12/05 04:00:54;;;;;;;3.70;1.33;;;;;;;3.18;100.00;99000.94;5000497;28;20333;-53
2021/12/05 04:03:21;;;;;;;3.33;1.47;;;;;;;3.10;100.00;99001.84;5006337;28;20191;-53
2021/12/05 04:05:47;;;;;;;1.97;0.90;;;;;;;3.01;100.00;98998.41;4999038;28;20199;-53
2021/12/05 04:08:15;;;;;;;3.17;1.00;;;;;;;2.99;100.00;99000.09;5002504;28;20294;-54
2021/12/05 04:10:45;;;;;;;2.23;1.10;;;;;;;2.94;100.00;98999.25;4999400;28;20212;-54
2021/12/05 04:13:11;;;;;;;3.40;1.13;;;;;;;2.95;100.00;99008.59;5010117;28;20239;-54
2021/12/05 04:15:37;;;;;;;2.37;1.10;;;;;;;2.99;100.00;98997.53;5001047;28;20283;-53
2021/12/05 04:18:04;;;;;;;2.33;1.03;;;;;;;3.04;100.00;98992.44;5006844;28;20216;-54
2021/12/05 04:20:30;;;;;;;2.63;0.97;;;;;;;3.09;100.00;98989.91;5001665;28;20195;-53
2021/12/05 04:22:57;;;;;;;1.40;0.87;;;;;;;3.14;100.00;98993.28;5001840;28;20196;-53
2021/12/05 04:25:23;;;;;;;1.87;0.87;;;;;;;3.18;100.00;98992.44;5003289;28;20191;-53
2021/12/05 04:27:50;;;;;;;3.90;1.37;;;;;;;3.23;100.00;98995.00;5008534;28;20244;-54
2021/12/05 04:30:21;;;;;;;3.30;1.00;;;;;;;3.30;100.00;98991.59;5000736;28;20217;-53
2021/12/05 04:32:47;;;;;;;1.80;0.90;;;;;;;3.37;100.00;98987.34;5002885;28;20184;-54
2021/12/05 04:35:13;;;;;;;3.10;1.30;;;;;;;3.42;100.00;98983.03;5005554;28;20514;-53
2021/12/05 04:37:39;;;;;;;2.70;1.20;;;;;;;3.44;100.00;98984.78;4998642;28;20217;-54
2021/12/05 04:40:07;;;;;;;4.50;1.30;;;;;;;3.47;100.00;98981.34;5004351;28;20188;-53
2021/12/05 04:42:33;;;;;;;1.63;1.00;;;;;;;3.48;100.00;98985.63;5002899;28;20191;-55
2021/12/05 04:45:03;;;;;;;3.70;1.30;;;;;;;3.50;100.00;98991.59;5004529;28;20551;-54
2021/12/05 04:47:28;;;;;;;2.53;1.40;;;;;;;3.54;100.00;98994.97;4996755;28;20199;-54
2021/12/05 04:49:54;;;;;;;3.33;1.43;;;;;;;3.59;100.00;98985.59;5011061;28;20250;-54
2021/12/05 04:52:20;;;;;;;2.27;1.20;;;;;;;3.64;100.00;98994.09;5000425;28;20706;-53
2021/12/05 04:54:46;;;;;;;2.20;1.17;;;;;;;3.68;100.00;98993.25;5001496;28;20254;-53
2021/12/05 04:57:11;;;;;;;4.33;1.73;;;;;;;3.74;100.00;98989.81;5002992;28;20235;-54
2021/12/05 04:59:38;;;;;;;2.90;1.30;;;;;;;3.75;100.00;98991.53;4998002;28;20190;-54
2021/12/05 05:02:07;;;;;;;3.70;1.23;;;;;;;3.75;100.00;98987.28;5004514;28;20275;-54
2021/12/05 05:04:42;;;;;;;3.10;1.10;;;;;;;3.77;100.00;98985.56;5002022;28;20595;-54
2021/12/05 05:07:15;;;;;;;1.70;1.07;;;;;;;3.80;100.00;98992.38;5000549;28;20231;-54
2021/12/05 05:09:40;;;;;;;3.57;1.20;;;;;;;3.84;100.00;98985.53;5016495;28;20207;-54
2021/12/05 05:12:06;;;;;;;2.97;1.20;;;;;;;3.84;100.00;98983.84;5000417;28;20211;-54
2021/12/05 05:14:31;;;;;;;2.73;1.27;;;;;;;3.86;100.00;98986.41;4998840;28;20197;-53
2021/12/05 05:16:57;;;;;;;2.67;1.20;;;;;;;3.87;100.00;98981.25;4996485;28;20229;-54
2021/12/05 05:19:38;;;;;;;2.77;0.90;;;;;;;3.89;100.00;98986.38;4993963;28;20185;-54
2021/12/05 05:45:59;;;;;;;1.00;0.80;;;;;;;3.06;100.00;98998.41;5000017;28;20204;-54
2021/12/05 05:48:49;;;;;;;2.70;1.30;;;;;;;2.96;100.00;99001.81;4995543;28;20197;-54
2021/12/05 05:51:13;;;;;;;2.33;1.00;;;;;;;2.85;100.00;98989.88;5003935;28;20579;-54
2021/12/05 05:53:39;;;;;;;2.10;0.93;;;;;;;2.79;100.00;98999.22;5003964;28;20184;-54
2021/12/05 05:56:10;;;;;;;3.27;1.07;;;;;;;2.77;100.00;98996.66;5010349;28;20372;-55
2021/12/05 05:58:42;;;;;;;1.90;0.90;;;;;;;2.82;100.00;99000.09;5005772;28;20709;-54
2021/12/05 06:01:18;;;;;;;3.00;0.90;;;;;;;2.92;100.00;98998.41;4998818;28;20204;-54
2021/12/05 06:03:44;;;;;;;2.13;0.90;;;;;;;3.02;100.00;98999.25;5005241;28;20248;-54
2021/12/05 06:06:12;;;;;;;1.80;1.07;;;;;;;3.12;100.00;99007.78;5003066;28;20188;-54
2021/12/05 06:08:39;;;;;;;2.03;1.07;;;;;;;3.22;100.00;99006.94;5002838;28;20194;-54
2021/12/05 06:11:08;;;;;;;1.90;0.93;;;;;;;3.31;100.00;99012.03;5000652;28;20216;-54
2021/12/05 06:13:36;;;;;;;2.57;1.33;;;;;;;3.37;100.00;99002.69;5009492;28;20192;-53
2021/12/05 06:16:02;;;;;;;2.10;1.07;;;;;;;3.41;100.00;99005.22;5007483;28;20270;-53
2021/12/05 06:18:28;;;;;;;2.63;1.20;;;;;;;3.43;100.00;99000.09;5019095;28;20215;-53
2021/12/05 06:20:55;;;;;;;3.37;1.50;;;;;;;3.45;100.00;99001.81;5018496;28;20665;-53
2021/12/05 06:23:20;;;;;;;4.13;1.30;;;;;;;3.45;100.00;98998.41;5019790;28;20762;-52
2021/12/05 06:25:49;;;;;;;4.57;1.83;;;;;;;3.46;100.00;99000.09;5024380;28;20191;-53
2021/12/05 06:28:16;;;;;;;5.10;4.60;;;;;;;3.39;100.00;98996.69;5016968;28;20334;-52
2021/12/05 06:30:54;;;;;;;3.20;2.90;;;;;;;3.35;100.00;99003.53;5008617;28;20211;-53
2021/12/05 06:41:48;;;;;;;6.67;4.40;;;;;;;3.43;100.00;99007.78;5017607;28;20196;-54
2021/12/05 06:46:59;;;;;;;3.07;2.10;;;;;;;3.50;100.00;99015.44;5018007;28;20226;-54
2021/12/05 06:49:24;;;;;;;3.83;2.33;;;;;;;3.48;100.00;99013.75;5020359;28;20208;-55
2021/12/05 06:51:49;;;;;;;4.10;2.53;;;;;;;3.44;100.00;99010.34;5021753;28;20192;-54
2021/12/05 06:54:15;;;;;;;3.80;2.47;;;;;;;3.37;100.00;99021.41;5020786;28;20296;-57
2021/12/05 06:56:40;;;;;;;3.70;1.57;;;;;;;3.31;100.00;99021.44;5010974;28;20216;-54
2021/12/05 06:59:05;;;;;;;2.87;1.47;;;;;;;3.30;100.00;99020.56;5008494;28;20655;-54
2021/12/05 07:01:31;;;;;;;2.60;1.17;;;;;;;3.26;100.00;99023.13;5006392;28;20226;-54
2021/12/05 07:04:02;;;;;;;36.80;20.30;;;;;;;3.24;100.00;99030.81;5008232;28;20627;-53
2021/12/05 07:06:30;;;;;;;118.30;62.80;;;;;;;3.23;100.00;99026.56;4997612;28;20315;-53
2021/12/05 07:09:02;;;;;;;122.07;71.53;;;;;;;3.27;100.00;99027.38;4999043;28;20193;-54
2021/12/05 07:11:45;;;;;;;68.80;46.27;;;;;;;3.30;100.00;99029.97;5041387;28;20192;-53
2021/12/05 07:16:59;;;;;;;60.00;52.73;;;;;;;3.17;100.00;99026.53;5038210;28;20224;-53
2021/12/05 07:19:58;;;;;;;50.50;45.23;;;;;;;3.09;100.00;99023.13;5000385;28;20197;-54
2021/12/05 07:22:41;;;;;;;54.23;48.53;;;;;;;2.99;100.00;99028.22;4991110;28;20707;-54
2021/12/05 07:25:13;;;;;;;51.37;45.87;;;;;;;2.94;100.00;99031.63;5013648;28;20595;-53
2021/12/05 07:43:40;;;;;;;20.83;18.77;;;;;;;3.48;100.00;99041.88;5009683;28;20192;-54
2021/12/05 07:46:07;;;;;;;25.20;22.80;;;;;;;3.57;100.00;99035.91;4999492;28;20273;-54
2021/12/05 07:48:35;;;;;;;20.13;18.20;;;;;;;3.65;100.00;99039.31;5001647;28;20647;-53
2021/12/05 07:51:12;;;;;;;26.07;23.47;;;;;;;3.74;100.00;99043.56;5021675;28;20220;-54
2021/12/05 07:53:51;;;;;;;29.03;25.90;;;;;;;3.80;100.00;99041.84;5003643;28;20610;-54
2021/12/05 07:56:27;;;;;;;32.10;27.93;;;;;;;3.88;100.00;99035.88;5072021;28;20645;-54
2021/12/05 08:17:38;;;;;;;17.27;15.03;;;;;;;4.41;100.00;99023.75;5006038;28;20212;-54
2021/12/05 08:20:06;;;;;;;14.10;12.67;;;;;;;4.53;100.00;99022.88;5006028;28;21042;-53
2021/12/05 08:22:32;;;;;;;14.00;12.50;;;;;;;4.67;100.00;99023.66;4995805;28;20641;-54
2021/12/05 08:25:03;;;;;;;10.83;9.70;;;;;;;4.78;100.00;99022.72;5018847;28;20195;-54
2021/12/05 08:27:29;;;;;;;7.97;7.20;;;;;;;4.92;100.00;99026.06;5000166;28;20231;-54
2021/12/05 08:29:57;;;;;;;9.33;8.43;;;;;;;5.04;100.00;99017.44;4995238;28;20688;-53
2021/12/05 08:38:33;;;;;;;6.33;5.47;;;;;;;5.44;100.00;99014.56;5011958;28;20654;-54
2021/12/05 08:41:10;;;;;;;6.17;4.70;;;;;;;5.52;100.00;99014.50;4995349;28;20193;-53
2021/12/05 09:29:26;;;;;;;4.17;2.37;;;;;;;5.68;100.00;99066.53;5019326;28;20201;-53
2021/12/05 09:51:13;;;;;;;2.23;1.10;;;;;;;5.97;100.00;99068.00;5005475;28;20268;-53
2021/12/05 10:02:44;;;;;;;2.70;1.37;;;;;;;6.41;100.00;99073.53;5003861;28;20228;-54
2021/12/05 10:18:57;;;;;;;2.30;1.60;;;;;;;6.54;100.00;99069.94;4997316;28;20216;-54
2021/12/05 10:38:50;;;;;;;2.67;1.47;;;;;;;6.66;100.00;99068.09;5002316;28;20218;-54
2021/12/05 10:41:47;;;;;;;2.30;1.30;;;;;;;6.70;100.00;99070.63;4993427;28;20576;-54
2021/12/05 10:44:13;;;;;;;2.10;1.40;;;;;;;6.78;100.00;99072.25;4993687;28;21592;-54
2021/12/05 10:46:41;;;;;;;2.30;1.30;;;;;;;6.81;100.00;99069.63;5001441;28;20214;-54
2021/12/05 10:49:10;;;;;;;2.57;1.27;;;;;;;6.78;100.00;99067.09;4997169;28;20207;-54
2021/12/05 10:51:38;;;;;;;2.60;1.37;;;;;;;6.77;100.00;99073.97;4997500;28;20237;-54
2021/12/05 10:54:10;;;;;;;3.10;1.20;;;;;;;6.77;100.00;99071.41;5006181;28;20195;-54
2021/12/05 10:56:47;;;;;;;1.60;1.13;;;;;;;6.74;100.00;99071.44;5023405;28;20208;-53
2021/12/05 10:59:16;;;;;;;3.07;1.27;;;;;;;6.66;100.00;99075.81;5061733;28;20195;-54
2021/12/05 11:01:52;;;;;;;2.37;1.20;;;;;;;6.63;100.00;99070.72;4997613;28;20224;-54
2021/12/05 11:04:28;;;;;;;3.47;1.30;;;;;;;6.66;100.00;99062.94;5000458;28;20188;-54
2021/12/05 11:06:56;;;;;;;2.30;1.30;;;;;;;6.74;100.00;99068.88;5003928;28;20210;-54
2021/12/05 11:09:25;;;;;;;2.67;1.80;;;;;;;6.86;100.00;99060.97;5007079;28;20202;-55
2021/12/05 11:12:14;;;;;;;2.93;1.80;;;;;;;6.95;100.00;99065.16;4999811;28;20201;-54
2021/12/05 11:14:54;;;;;;;2.20;1.87;;;;;;;6.94;100.00;99062.63;4998622;28;20201;-55
2021/12/05 11:17:23;;;;;;;2.70;1.93;;;;;;;6.94;100.00;99060.03;4999417;28;20529;-55
2021/12/05 11:19:54;;;;;;;2.03;1.23;;;;;;;6.93;100.00;99051.47;4996307;28;20227;-55
2021/12/05 11:22:26;;;;;;;3.43;1.60;;;;;;;6.94;100.00;99060.88;5012410;28;20203;-55
2021/12/05 11:24:54;;;;;;;3.33;1.50;;;;;;;6.96;100.00;99055.69;5002185;28;20295;-54
2021/12/05 11:27:22;;;;;;;2.77;1.53;;;;;;;7.00;100.00;99050.50;5012883;28;20214;-54
2021/12/05 11:29:50;;;;;;;2.60;1.60;;;;;;;7.09;100.00;99054.69;4994682;28;20207;-54
2021/12/05 11:32:36;;;;;;;3.07;1.67;;;;;;;7.22;100.00;99047.59;4995226;28;20601;-54
2021/12/05 11:35:20;;;;;;;3.77;2.00;;;;;;;7.36;100.00;99046.53;4996147;28;20201;-54
2021/12/05 11:37:56;;;;;;;2.20;1.60;;;;;;;7.42;100.00;99054.19;5000042;28;20586;-55
2021/12/05 11:40:24;;;;;;;3.40;1.77;;;;;;;7.45;100.00;99054.97;4994533;28;20229;-54
2021/12/05 11:43:02;;;;;;;4.40;2.10;;;;;;;7.46;100.00;99055.84;5002516;28;20201;-55
2021/12/05 11:45:30;;;;;;;2.47;1.73;;;;;;;7.46;100.00;99059.25;4994559;28;20592;-54
2021/12/05 11:47:56;;;;;;;2.43;1.80;;;;;;;7.46;100.00;99056.66;4998907;28;20277;-54
2021/12/05 11:50:36;;;;;;;2.93;1.70;;;;;;;7.44;100.00;99050.69;5001635;28;20223;-54
2021/12/05 11:53:03;;;;;;;2.23;1.70;;;;;;;7.42;100.00;99054.19;5000472;28;20204;-54
2021/12/05 11:55:31;;;;;;;1.80;1.33;;;;;;;7.39;100.00;99055.09;4998602;28;20274;-54
2021/12/05 11:57:57;;;;;;;2.80;1.50;;;;;;;7.39;100.00;99055.09;5009726;28;20320;-53
2021/12/05 12:00:23;;;;;;;1.83;1.10;;;;;;;7.44;100.00;99055.84;5015251;28;20193;-54
2021/12/05 12:02:50;;;;;;;1.90;1.17;;;;;;;7.53;100.00;99046.28;5003174;28;20648;-54
2021/12/05 12:05:23;;;;;;;1.80;1.17;;;;;;;7.61;100.00;99044.41;5007184;28;20198;-54
2021/12/05 12:08:02;;;;;;;2.00;1.27;;;;;;;7.63;100.00;99038.38;5003013;28;20210;-54
2021/12/05 12:10:31;;;;;;;1.30;1.17;;;;;;;7.67;100.00;99034.03;4995344;28;20216;-56
2021/12/05 12:13:11;;;;;;;1.60;1.50;;;;;;;7.70;100.00;99027.97;5001375;28;20202;-54
2021/12/05 12:15:37;;;;;;;2.47;1.50;;;;;;;7.75;100.00;99027.00;5001824;28;20199;-55
2021/12/05 12:18:13;;;;;;;1.63;1.30;;;;;;;7.78;100.00;99033.84;5000101;28;20770;-55
2021/12/05 12:20:40;;;;;;;5.43;4.03;;;;;;;7.77;100.00;99032.97;5001840;28;20191;-55
2021/12/05 12:23:06;;;;;;;5.63;4.40;;;;;;;7.75;100.00;99028.75;4996039;28;20644;-55
2021/12/05 12:25:36;;;;;;;11.23;9.33;;;;;;;7.76;100.00;99028.69;4992067;28;20193;-55
2021/12/05 12:28:03;;;;;;;10.07;7.73;;;;;;;7.74;100.00;99021.88;4999305;28;20218;-54
2021/12/05 12:30:35;;;;;;;8.40;6.87;;;;;;;7.74;100.00;99024.47;5004681;28;20695;-55
2021/12/05 12:33:09;;;;;;;11.80;10.17;;;;;;;7.74;100.00;99009.00;4996050;28;20192;-55
2021/12/05 12:35:36;;;;;;;9.60;7.80;;;;;;;7.73;100.00;99023.59;4996759;28;20931;-55
2021/12/05 12:38:14;;;;;;;5.67;5.10;;;;;;;7.76;100.00;99009.84;5009337;28;20213;-53
2021/12/05 12:40:52;;;;;;;7.73;4.60;;;;;;;7.75;100.00;99011.56;5010289;28;20177;-54
2021/12/05 12:43:38;;;;;;;3.87;3.20;;;;;;;7.63;100.00;99004.03;5015379;28;20190;-53
2021/12/05 12:46:17;;;;;;;2.87;2.60;;;;;;;7.46;100.00;99001.78;5011991;28;20524;-54
2021/12/05 12:48:43;;;;;;;2.83;1.93;;;;;;;7.31;100.00;99002.88;5009811;28;20558;-54
2021/12/05 12:51:34;;;;;;;2.20;1.87;;;;;;;7.17;100.00;99003.94;4993930;28;20210;-54
2021/12/05 12:54:09;;;;;;;2.13;1.47;;;;;;;7.23;100.00;99005.56;5003845;28;20190;-55
2021/12/05 12:56:35;;;;;;;2.30;1.40;;;;;;;7.45;100.00;99000.91;5001990;28;20212;-55
2021/12/05 12:59:06;;;;;;;2.20;1.23;;;;;;;7.73;100.00;98997.00;5001623;28;20646;-54
2021/12/05 13:10:08;;;;;;;0.93;0.77;;;;;;;7.63;100.00;98998.91;5008814;28;20209;-54
2021/12/05 13:12:45;;;;;;;1.40;1.00;;;;;;;7.59;100.00;98999.81;4995008;28;20761;-55
2021/12/05 13:15:33;;;;;;;1.27;0.83;;;;;;;7.51;100.00;99005.09;5008158;28;20213;-55
2021/12/05 13:18:05;;;;;;;1.53;0.87;;;;;;;7.35;100.00;99001.94;5011127;28;20230;-54
2021/12/05 13:20:42;;;;;;;2.50;0.83;;;;;;;7.10;100.00;98996.34;4997126;28;20264;-55
2021/12/05 13:23:08;;;;;;;2.70;1.13;;;;;;;6.86;100.00;99004.41;4993909;28;20203;-54
2021/12/05 13:25:55;;;;;;;0.67;0.60;;;;;;;6.66;100.00;99014.97;4999660;28;20187;-55
2021/12/05 13:28:37;;;;;;;1.00;0.63;;;;;;;6.50;100.00;99016.03;5037479;28;20193;-54
2021/12/05 13:31:27;;;;;;;0.80;0.80;;;;;;;6.56;100.00;99016.81;5023729;28;20484;-54
2021/12/05 13:34:15;;;;;;;1.30;1.00;;;;;;;6.86;100.00;99006.13;5013337;28;20586;-55
2021/12/05 13:36:43;;;;;;;1.90;1.03;;;;;;;6.98;100.00;99008.53;5000238;28;20678;-54
2021/12/05 13:39:39;;;;;;;1.67;1.10;;;;;;;6.99;100.00;99004.22;4998539;28;20194;-54
2021/12/05 13:42:25;;;;;;;3.90;2.23;;;;;;;6.90;100.00;99009.50;5002183;28;20192;-54
2021/12/05 13:45:00;;;;;;;3.77;1.90;;;;;;;6.78;100.00;99013.09;5008335;27;20209;-54
2021/12/05 13:47:41;;;;;;;3.60;2.23;;;;;;;6.67;100.00;99015.81;4994259;28;20217;-54
2021/12/05 13:50:18;;;;;;;3.43;2.23;;;;;;;6.53;100.00;99019.41;4999144;28;21089;-54
2021/12/05 13:53:14;;;;;;;3.00;2.10;;;;;;;6.44;100.00;99022.13;4998901;28;20210;-54
2021/12/05 13:55:49;;;;;;;3.63;2.60;;;;;;;6.36;100.00;99035.06;5003043;28;20185;-54
2021/12/05 13:58:24;;;;;;;4.00;2.50;;;;;;;6.30;100.00;99031.72;5003052;28;20325;-54
2021/12/05 14:01:01;;;;;;;2.93;2.10;;;;;;;6.21;100.00;99036.06;5002228;28;20623;-54
2021/12/05 14:03:41;;;;;;;2.57;1.77;;;;;;;6.14;100.00;99036.16;5002665;28;20189;-54
2021/12/05 14:06:26;;;;;;;4.53;3.87;;;;;;;6.05;100.00;99037.97;5008460;28;20224;-54
2021/12/05 14:08:53;;;;;;;5.70;3.67;;;;;;;5.99;100.00;99038.00;5012115;28;20203;-54
2021/12/05 14:11:19;;;;;;;3.30;3.00;;;;;;;5.93;100.00;99040.63;4995073;28;20225;-54
2021/12/05 14:13:45;;;;;;;3.53;2.40;;;;;;;5.84;100.00;99046.72;5009020;28;20205;-54
2021/12/05 14:16:10;;;;;;;4.00;2.23;;;;;;;5.80;100.00;99045.91;5014315;28;20193;-55
2021/12/05 14:18:36;;;;;;;2.60;1.80;;;;;;;5.69;100.00;99042.56;5002141;28;20189;-54
2021/12/05 14:21:15;;;;;;;2.17;1.97;;;;;;;5.57;100.00;99042.66;4999565;28;20545;-52
2021/12/05 14:23:50;;;;;;;2.80;1.77;;;;;;;5.45;100.00;99046.19;4994603;28;20189;-54
2021/12/05 14:26:18;;;;;;;1.93;1.73;;;;;;;5.34;100.00;99046.28;5007151;28;20220;-54
2021/12/05 14:28:54;;;;;;;2.37;1.47;;;;;;;5.23;100.00;99045.50;4997055;28;20194;-54
2021/12/05 14:31:25;;;;;;;2.63;1.50;;;;;;;5.14;100.00;99057.53;5005712;27;20638;-54
2021/12/05 14:33:53;;;;;;;1.50;1.30;;;;;;;5.04;100.00;99064.44;5001147;28;20984;-54
2021/12/05 14:36:29;;;;;;;1.40;1.10;;;;;;;4.97;100.00;99060.22;5002886;28;20558;-55
2021/12/05 14:39:32;;;;;;;2.40;1.40;;;;;;;4.86;100.00;99062.84;4997003;28;20184;-54
2021/12/05 14:42:05;;;;;;;2.07;1.47;;;;;;;4.78;100.00;99062.00;5011547;28;20201;-54
2021/12/05 14:44:31;;;;;;;3.27;1.53;;;;;;;4.71;100.00;99057.78;4998849;28;20192;-54
2021/12/05 14:47:08;;;;;;;3.10;1.20;;;;;;;4.68;100.00;99065.47;5001180;28;20215;-54
2021/12/05 14:49:39;;;;;;;2.00;1.20;;;;;;;4.68;100.00;99063.78;4997593;28;20422;-53
2021/12/05 14:52:18;;;;;;;1.53;1.20;;;;;;;4.72;100.00;99064.63;5008644;28;20195;-54
2021/12/05 14:54:44;;;;;;;1.70;1.20;;;;;;;4.79;100.00;99070.56;5000801;28;20196;-54
2021/12/05 14:57:20;;;;;;;1.07;0.97;;;;;;;4.87;100.00;99079.06;4997242;28;20267;-54
2021/12/05 14:59:48;;;;;;;1.70;1.00;;;;;;;4.92;100.00;99077.34;5012368;28;20211;-54
2021/12/05 15:02:16;;;;;;;2.63;1.40;;;;;;;4.95;100.00;99087.56;5007481;28;20290;-54
2021/12/05 15:04:47;;;;;;;1.57;1.10;;;;;;;4.96;100.00;99089.28;5001151;28;20611;-54
2021/12/05 15:07:13;;;;;;;2.40;1.30;;;;;;;4.96;100.00;99096.97;5016399;28;20648;-55
2021/12/05 15:09:45;;;;;;;1.67;1.20;;;;;;;4.97;100.00;99092.69;5018590;28;20268;-54
2021/12/05 15:12:16;;;;;;;3.43;1.30;;;;;;;4.97;100.00;99098.69;5033601;28;20192;-54
2021/12/05 15:14:44;;;;;;;3.77;1.63;;;;;;;5.00;100.00;99108.06;4998561;28;20200;-54
2021/12/05 15:17:19;;;;;;;2.20;1.43;;;;;;;5.04;100.00;99107.19;4995399;28;20471;-54
2021/12/05 15:19:52;;;;;;;1.80;1.67;;;;;;;5.06;100.00;99114.84;4996285;28;20182;-53
2021/12/05 15:22:18;;;;;;;2.77;1.60;;;;;;;5.07;100.00;99114.84;5003496;28;20187;-54
2021/12/05 15:24:55;;;;;;;1.97;1.47;;;;;;;5.09;100.00;99113.13;4999890;28;20188;-54
2021/12/05 15:27:25;;;;;;;2.00;1.80;;;;;;;5.09;100.00;99118.25;5008152;28;20210;-54
2021/12/05 15:29:57;;;;;;;3.43;1.63;;;;;;;5.12;100.00;99113.13;4993704;28;20273;-53
2021/12/05 15:32:26;;;;;;;2.97;1.77;;;;;;;5.12;100.00;99119.97;5006876;28;20243;-54
2021/12/05 15:34:54;;;;;;;3.37;1.90;;;;;;;5.14;100.00;99121.66;5002158;28;20198;-54
2021/12/05 15:37:21;;;;;;;3.60;1.70;;;;;;;5.15;100.00;99118.22;5002785;28;20567;-55
2021/12/05 15:39:50;;;;;;;2.87;1.60;;;;;;;5.13;100.00;99121.69;5003172;28;20184;-54
2021/12/05 15:42:23;;;;;;;3.50;1.90;;;;;;;5.12;100.00;99132.78;5006203;28;20204;-55
2021/12/05 15:44:50;;;;;;;3.37;1.97;;;;;;;5.09;100.00;99133.63;4997249;28;20258;-55
2021/12/05 15:47:25;;;;;;;2.70;1.83;;;;;;;5.06;100.00;99146.50;5001060;28;20457;-54
2021/12/05 15:50:07;;;;;;;2.33;1.50;;;;;;;5.03;100.00;99147.34;4994764;28;20735;-54
2021/12/05 15:52:37;;;;;;;2.67;1.57;;;;;;;5.02;100.00;99142.25;5002266;28;20280;-55
2021/12/05 15:55:07;;;;;;;2.20;1.60;;;;;;;5.00;100.00;99138.81;4994221;28;20587;-55
2021/12/05 15:57:36;;;;;;;2.37;1.73;;;;;;;4.98;100.00;99135.41;5006772;28;20307;-54
2021/12/05 16:00:11;;;;;;;1.50;1.37;;;;;;;4.97;100.00;99144.84;5002722;28;20201;-54
2021/12/05 16:02:39;;;;;;;2.23;1.43;;;;;;;4.96;100.00;99153.38;4998392;28;20743;-54
2021/12/05 16:05:22;;;;;;;3.23;1.57;;;;;;;4.95;100.00;99154.25;4997332;28;20587;-54
2021/12/05 16:07:49;;;;;;;2.80;1.90;;;;;;;4.93;100.00;99158.50;4997522;28;20742;-54
2021/12/05 16:10:22;;;;;;;2.87;2.30;;;;;;;4.91;100.00;99161.97;5009245;28;20596;-54
2021/12/05 16:12:49;;;;;;;4.13;1.97;;;;;;;4.83;100.00;99149.16;4995977;28;20259;-54
2021/12/05 16:15:18;;;;;;;3.87;2.00;;;;;;;4.76;100.00;99166.28;4993694;28;20192;-54
2021/12/05 16:17:52;;;;;;;2.50;2.00;;;;;;;4.66;100.00;99157.75;4994825;28;21011;-54
2021/12/05 16:20:21;;;;;;;2.83;1.77;;;;;;;4.59;100.00;99161.19;5000397;28;20193;-53
2021/12/05 16:23:05;;;;;;;2.03;1.83;;;;;;;4.50;100.00;99159.50;5002709;28;20668;-53
2021/12/05 16:25:31;;;;;;;1.90;1.40;;;;;;;4.45;100.00;99158.69;5001004;28;20280;-54
2021/12/05 16:28:02;;;;;;;3.20;2.40;;;;;;;4.42;100.00;99168.94;4999908;28;20208;-54
2021/12/05 16:30:33;;;;;;;2.70;2.30;;;;;;;4.42;100.00;99171.50;4998256;28;20227;-53
2021/12/05 16:33:04;;;;;;;2.43;2.23;;;;;;;4.41;100.00;99175.75;4999704;28;20549;-54
2021/12/05 16:35:38;;;;;;;3.53;3.07;;;;;;;4.42;100.00;99180.00;4999141;28;20196;-54
2021/12/05 16:38:24;;;;;;;3.30;3.00;;;;;;;4.44;100.00;99180.03;4997034;28;20652;-54
2021/12/05 16:41:04;;;;;;;4.53;3.47;;;;;;;4.45;100.00;99176.63;5009881;28;20253;-53
2021/12/05 16:43:32;;;;;;;5.20;3.10;;;;;;;4.46;100.00;99178.31;4998481;28;20192;-53
2021/12/05 16:46:08;;;;;;;3.60;2.93;;;;;;;4.48;100.00;99184.28;5001152;28;20657;-53
2021/12/05 16:48:36;;;;;;;4.37;2.83;;;;;;;4.48;100.00;99181.69;5011762;28;20180;-53
2021/12/05 16:51:16;;;;;;;3.13;2.83;;;;;;;4.47;100.00;99192.81;5006739;28;20224;-53
2021/12/05 16:53:46;;;;;;;2.80;2.57;;;;;;;4.45;100.00;99191.13;5001076;28;20288;-55
2021/12/05 16:56:17;;;;;;;2.50;2.23;;;;;;;4.41;100.00;99198.78;5015182;28;20609;-54
2021/12/05 16:58:42;;;;;;;2.93;2.20;;;;;;;4.38;100.00;99209.06;5008696;28;20183;-55
2021/12/05 17:01:15;;;;;;;3.50;2.40;;;;;;;4.35;100.00;99211.63;5001648;28;20890;-54
2021/12/05 17:03:43;;;;;;;2.70;2.50;;;;;;;4.31;100.00;99207.34;4999440;28;20200;-54
2021/12/05 17:06:11;;;;;;;3.60;2.77;;;;;;;4.30;100.00;99207.38;5002405;28;20192;-54
2021/12/05 17:08:44;;;;;;;5.77;4.00;;;;;;;4.32;100.00;99216.75;4999439;28;20609;-53